Time;durP1;ratioP1;P1;durP2;ratioP2;P2;SDS_P1;SDS_P2;PMS_P1;PMS_P2;Temp;Humidity;BMP_temperature;BMP_pressure;BME280_temperature;BME280_humidity;BME280_pressure;Samples;Min_cycle;Max_cycle;Signal;HPM_P1;HPM_P2
2021/11/24 00:00:34;;;;;;;;;46.00;39.33;;;;;2.36;64.29;101913.59;4841934;29;8880;-72
2021/11/24 00:03:16;;;;;;;;;44.00;36.33;;;;;2.08;64.40;101909.03;4841608;29;8927;-72
2021/11/24 00:05:44;;;;;;;;;42.67;39.00;;;;;2.15;64.86;101915.16;4843065;29;9033;-72
2021/11/24 00:08:40;;;;;;;;;50.33;44.33;;;;;2.24;64.23;101921.88;4824043;29;8904;-72
2021/11/24 00:11:35;;;;;;;;;46.33;44.33;;;;;2.17;64.70;101922.03;4824727;29;8954;-72
2021/11/24 00:14:31;;;;;;;;;39.00;38.00;;;;;2.06;64.34;101927.53;4823695;29;8891;-72
2021/11/24 00:16:59;;;;;;;;;54.67;46.33;;;;;2.27;64.51;101934.19;4830555;29;8877;-72
2021/11/24 00:19:55;;;;;;;;;55.00;42.00;;;;;2.27;64.26;101928.72;4835818;29;8872;-72
2021/11/24 00:22:51;;;;;;;;;36.67;32.00;;;;;2.39;64.47;101926.78;4841853;29;8868;-72
2021/11/24 00:25:47;;;;;;;;;37.00;34.67;;;;;2.43;63.70;101928.75;4837280;29;8880;-72
2021/11/24 00:28:42;;;;;;;;;45.33;43.00;;;;;2.23;64.41;101939.34;4823614;29;8859;-73
2021/11/24 00:31:38;;;;;;;;;38.00;38.00;;;;;2.39;63.75;101937.72;4823329;29;8875;-72
2021/11/24 00:34:06;;;;;;;;;44.00;41.33;;;;;2.39;63.81;101938.53;4808104;29;8919;-72
2021/11/24 00:37:02;;;;;;;;;46.00;43.00;;;;;2.37;63.89;101940.66;4823486;29;8876;-72
2021/11/24 00:39:58;;;;;;;;;44.00;40.67;;;;;2.28;62.63;101925.75;4841671;29;8873;-72
2021/11/24 00:42:53;;;;;;;;;52.67;46.67;;;;;2.33;62.91;101933.22;4841577;29;8897;-73
2021/11/24 00:45:22;;;;;;;;;56.00;43.67;;;;;2.23;63.30;101926.50;4839874;29;8912;-72
2021/11/24 00:48:18;;;;;;;;;51.67;42.67;;;;;2.22;63.05;101924.00;4823206;29;8871;-73
2021/11/24 00:51:14;;;;;;;;;43.67;41.33;;;;;2.35;62.67;101931.06;4823248;29;8883;-72
2021/11/24 00:54:09;;;;;;;;;48.00;44.00;;;;;2.43;62.82;101925.19;4823166;29;8872;-72
2021/11/24 00:57:05;;;;;;;;;36.33;36.00;;;;;2.42;62.36;101924.38;4838082;29;8869;-72
2021/11/24 01:00:02;;;;;;;;;48.00;42.67;;;;;2.33;62.44;101934.03;4841298;29;9064;-72
2021/11/24 01:02:58;;;;;;;;;55.67;47.67;;;;;2.30;62.13;101929.09;4841188;29;8861;-72
2021/11/24 01:05:54;;;;;;;;;42.33;38.67;;;;;2.34;62.84;101929.41;4839058;29;8860;-72
2021/11/24 01:08:50;;;;;;;;;38.33;38.33;;;;;2.30;62.34;101926.34;4841146;29;8860;-72
2021/11/24 01:11:18;;;;;;;;;35.00;33.67;;;;;2.31;62.45;101930.75;4843153;29;8915;-72
2021/11/24 01:14:00;;;;;;;;;45.33;39.67;;;;;2.05;62.03;101931.31;4845728;29;8908;-72
2021/11/24 01:16:55;;;;;;;;;39.33;36.67;;;;;2.25;61.78;101931.72;4844323;29;8895;-72
2021/11/24 01:19:51;;;;;;;;;39.00;38.00;;;;;2.24;61.50;101935.53;4844661;29;8869;-72
2021/11/24 01:22:46;;;;;;;;;28.67;28.67;;;;;2.21;61.81;101942.28;4842065;29;8914;-72
2021/11/24 01:25:43;;;;;;;;;45.33;38.67;;;;;2.15;62.35;101947.91;4826525;29;8871;-72
2021/11/24 01:28:39;;;;;;;;;40.33;39.00;;;;;2.19;62.45;101938.97;4844676;29;8999;-72
2021/11/24 01:31:34;;;;;;;;;63.67;53.00;;;;;2.23;62.31;101952.97;4844585;29;8869;-72
2021/11/24 01:34:02;;;;;;;;;66.00;53.33;;;;;2.25;62.02;101950.00;4845266;29;8896;-72
2021/11/24 01:36:58;;;;;;;;;59.33;50.33;;;;;2.24;61.98;101957.38;4840290;29;8987;-72
2021/11/24 01:39:54;;;;;;;;;61.67;51.67;;;;;2.18;62.08;101959.16;4844691;29;8876;-72
2021/11/24 01:42:50;;;;;;;;;57.33;47.67;;;;;2.24;61.79;101949.16;4844485;29;8893;-71
2021/11/24 01:45:27;;;;;;;;;56.67;47.00;;;;;2.27;62.10;101956.03;4830259;29;8908;-72
2021/11/24 01:48:27;;;;;;;;;53.33;46.33;;;;;2.28;62.10;101955.78;4844236;29;8857;-72
2021/11/24 01:51:23;;;;;;;;;48.67;44.67;;;;;2.18;61.72;101967.34;4831968;29;8995;-72
2021/11/24 01:54:19;;;;;;;;;44.33;40.00;;;;;2.24;61.80;101962.81;4844472;29;8988;-72
2021/11/24 01:57:17;;;;;;;;;51.67;45.67;;;;;2.22;61.89;101971.25;4842803;29;8873;-72
2021/11/24 02:00:17;;;;;;;;;44.00;42.00;;;;;2.22;62.13;101965.81;4843797;29;8872;-72
2021/11/24 02:02:45;;;;;;;;;54.33;46.00;;;;;2.18;62.15;101975.53;4843798;29;8893;-72
2021/11/24 02:05:18;;;;;;;;;47.67;45.00;;;;;2.04;62.67;101978.78;4845111;29;8869;-71
2021/11/24 02:08:13;;;;;;;;;49.33;45.33;;;;;2.26;62.19;101973.50;4827518;29;8867;-72
2021/11/24 02:11:09;;;;;;;;;51.67;47.67;;;;;2.19;62.01;101979.09;4813433;29;8871;-72
2021/11/24 02:14:06;;;;;;;;;56.67;50.33;;;;;2.33;61.73;101983.19;4825391;29;8880;-72
2021/11/24 02:17:01;;;;;;;;;63.00;52.00;;;;;2.30;61.74;101985.56;4834485;29;8869;-73
2021/11/24 02:19:32;;;;;;;;;62.67;54.67;;;;;2.26;61.05;101978.94;4844944;29;8976;-72
2021/11/24 02:22:01;;;;;;;;;65.00;54.00;;;;;2.12;61.71;101986.59;4844551;29;9018;-72
2021/11/24 02:24:35;;;;;;;;;51.67;47.00;;;;;2.15;61.52;101981.50;4829115;29;9020;-72
2021/11/24 02:27:31;;;;;;;;;57.33;51.00;;;;;2.28;61.81;101983.09;4830034;29;8883;-72
2021/11/24 02:30:26;;;;;;;;;58.00;47.67;;;;;2.32;60.91;101991.63;4825830;29;8931;-72
2021/11/24 02:33:22;;;;;;;;;47.00;43.33;;;;;2.31;60.85;101996.25;4825375;29;8887;-72
2021/11/24 02:36:18;;;;;;;;;52.33;45.00;;;;;2.35;60.42;101988.41;4832345;29;8853;-72
2021/11/24 02:39:15;;;;;;;;;56.33;48.00;;;;;2.37;60.66;102006.19;4843628;29;8908;-72
2021/11/24 02:42:10;;;;;;;;;56.67;44.67;;;;;2.27;60.48;102008.72;4830188;29;9636;-71
2021/11/24 02:44:42;;;;;;;;;42.67;39.33;;;;;2.12;59.98;102003.78;4844596;29;8900;-71
2021/11/24 02:47:19;;;;;;;;;55.33;47.00;;;;;2.18;60.28;102002.84;4830531;29;8915;-71
2021/11/24 02:50:15;;;;;;;;;52.33;45.33;;;;;2.12;60.43;102009.25;4812815;29;8872;-71
2021/11/24 02:53:11;;;;;;;;;36.33;35.67;;;;;2.15;60.23;102003.31;4824921;29;8887;-72
2021/11/24 02:55:39;;;;;;;;;44.67;42.33;;;;;2.10;61.09;102011.41;4826488;29;8902;-72
2021/11/24 02:58:07;;;;;;;;;55.33;45.33;;;;;2.26;60.77;102006.25;4809834;29;8915;-73
2021/11/24 03:00:49;;;;;;;;;32.67;32.67;;;;;2.13;60.70;102008.19;4825618;29;9634;-72
2021/11/24 03:03:26;;;;;;;;;29.33;27.67;;;;;2.15;60.91;102007.97;4825887;29;8875;-72
2021/11/24 03:06:08;;;;;;;;;34.00;33.33;;;;;2.35;60.29;102019.25;4825341;29;11783;-72
2021/11/24 03:09:05;;;;;;;;;33.00;32.67;;;;;2.20;59.90;102021.69;4824723;29;8856;-73
2021/11/24 03:11:33;;;;;;;;;31.67;31.33;;;;;2.21;60.44;102026.06;4825751;29;8926;-72
2021/11/24 03:14:28;;;;;;;;;26.67;26.67;;;;;2.20;60.59;102025.25;4825121;29;9697;-72
2021/11/24 03:16:56;;;;;;;;;26.00;24.67;;;;;2.13;60.97;102035.47;4820998;29;8887;-72
2021/11/24 03:19:52;;;;;;;;;22.33;22.33;;;;;2.17;58.65;102033.09;4812446;29;9637;-72
2021/11/24 03:22:47;;;;;;;;;20.33;20.33;;;;;1.96;58.25;102031.84;4824414;29;8993;-72
2021/11/24 03:25:43;;;;;;;;;21.33;21.33;;;;;2.05;58.76;102037.75;4824429;29;12491;-71
2021/11/24 03:28:11;;;;;;;;;25.00;21.67;;;;;2.01;58.05;102051.06;4824935;29;11729;-72
2021/11/24 03:30:52;;;;;;;;;20.67;20.33;;;;;1.91;57.33;102045.38;4843574;29;11836;-71
2021/11/24 03:33:48;;;;;;;;;20.67;20.67;;;;;2.09;56.90;102052.59;4829566;29;11741;-73
2021/11/24 03:36:44;;;;;;;;;17.00;17.00;;;;;2.16;57.55;102058.75;4839177;29;11789;-71
2021/11/24 03:39:40;;;;;;;;;14.33;14.00;;;;;2.11;56.88;102055.91;4824151;29;12545;-71
2021/11/24 03:42:36;;;;;;;;;16.00;16.00;;;;;2.23;56.18;102065.72;4824014;29;11792;-70
2021/11/24 03:45:34;;;;;;;;;13.50;13.50;;;;;2.12;54.86;102072.03;4826302;29;11802;-73
2021/11/24 03:48:30;;;;;;;;;9.75;9.75;;;;;2.03;53.92;102072.66;4841316;29;12536;-71
2021/11/24 03:51:25;;;;;;;;;11.00;11.00;;;;;2.11;54.49;102072.28;4840645;29;11728;-71
2021/11/24 03:54:21;;;;;;;;;11.00;11.00;;;;;2.07;54.23;102084.72;4842055;29;11831;-71
2021/11/24 03:57:17;;;;;;;;;11.00;11.00;;;;;2.04;53.74;102090.69;4838604;29;12623;-71
2021/11/24 04:00:20;;;;;;;;;10.00;10.00;;;;;2.06;52.65;102089.38;4840406;29;12541;-71
2021/11/24 04:03:16;;;;;;;;;11.00;11.00;;;;;1.99;52.99;102093.28;4829413;29;11724;-72
2021/11/24 04:05:52;;;;;;;;;9.00;9.00;;;;;1.92;52.15;102107.09;4842770;29;12523;-72
2021/11/24 04:08:47;;;;;;;;;7.00;7.00;;;;;1.99;52.19;102096.00;4841894;29;12473;-72
2021/11/24 04:11:15;;;;;;;;;11.00;11.00;;;;;1.91;52.74;102102.66;4842742;29;12443;-72
2021/11/24 04:14:11;;;;;;;;;7.00;7.00;;;;;1.92;53.38;102105.19;4842465;29;12409;-71
2021/11/24 04:16:38;;;;;;;;;10.25;10.25;;;;;1.99;52.70;102090.56;4842483;29;11750;-71
2021/11/24 04:19:34;;;;;;;;;6.50;6.50;;;;;2.03;53.12;102099.94;4824229;29;11691;-71
2021/11/24 04:22:31;;;;;;;;;5.00;5.00;;;;;1.97;52.37;102100.88;4824110;29;11775;-72
2021/11/24 04:25:27;;;;;;;;;9.00;9.00;;;;;1.87;52.84;102104.22;4823536;29;11722;-72
2021/11/24 04:27:56;;;;;;;;;10.00;10.00;;;;;1.94;52.74;102110.41;4824503;29;11767;-73
2021/11/24 04:30:24;;;;;;;;;4.25;4.25;;;;;1.87;52.73;102115.16;4824681;29;11718;-72
2021/11/24 04:32:52;;;;;;;;;5.00;5.00;;;;;1.72;52.09;102117.50;4825142;29;11716;-71
2021/11/24 04:35:40;;;;;;;;;11.50;11.50;;;;;1.73;52.73;102127.34;4823946;29;11708;-72
2021/11/24 04:38:35;;;;;;;;;18.00;18.00;;;;;1.77;52.07;102134.00;4832537;29;12583;-73
2021/11/24 04:41:31;;;;;;;;;63.33;50.33;;;;;1.68;52.10;102133.50;4841389;29;11724;-73
2021/11/24 04:43:59;;;;;;;;;54.67;48.67;;;;;1.55;53.08;102128.31;4842526;29;8881;-72
2021/11/24 04:46:26;;;;;;;;;38.33;38.00;;;;;1.45;53.39;102131.59;4839667;29;9628;-71
2021/11/24 04:49:22;;;;;;;;;19.33;19.33;;;;;1.31;52.92;102136.44;4837426;29;8913;-72
2021/11/24 04:51:50;;;;;;;;;16.00;16.00;;;;;1.18;53.28;102130.38;4830760;29;8899;-72
2021/11/24 04:54:17;;;;;;;;;12.67;12.67;;;;;0.96;53.92;102136.34;4841340;29;8969;-72
2021/11/24 04:57:13;;;;;;;;;16.33;14.67;;;;;1.02;54.21;102146.31;4839726;29;8880;-71
2021/11/24 04:59:43;;;;;;;;;22.00;22.00;;;;;1.00;54.47;102150.34;4824388;29;8878;-72
2021/11/24 05:02:11;;;;;;;;;22.33;22.33;;;;;0.92;54.35;102159.66;4840764;29;8889;-71
2021/11/24 05:05:07;;;;;;;;;22.00;21.67;;;;;1.03;55.05;102161.59;4823650;29;8860;-73
2021/11/24 05:08:03;;;;;;;;;8.33;8.33;;;;;1.10;54.61;102165.06;4825632;29;8940;-73
2021/11/24 05:10:59;;;;;;;;;17.33;17.33;;;;;0.88;54.05;102172.06;4840445;29;8889;-72
2021/11/24 05:14:00;;;;;;;;;25.33;25.33;;;;;1.00;54.81;102174.88;4841126;29;8860;-72
2021/11/24 05:16:37;;;;;;;;;30.33;24.33;;;;;1.14;55.21;102170.84;4841510;29;8885;-72
2021/11/24 05:19:36;;;;;;;;;45.67;42.33;;;;;1.18;55.19;102173.97;4822626;29;9083;-72
2021/11/24 05:22:05;;;;;;;;;36.00;36.00;;;;;1.11;55.00;102190.41;4832529;29;9687;-72
2021/11/24 05:24:33;;;;;;;;;25.00;24.33;;;;;1.15;55.16;102185.31;4827394;29;8883;-72
2021/11/24 05:27:01;;;;;;;;;28.33;28.33;;;;;1.12;54.70;102181.16;4824846;29;8888;-72
2021/11/24 05:29:56;;;;;;;;;28.33;26.67;;;;;0.96;54.96;102185.38;4831567;29;8877;-73
2021/11/24 05:32:24;;;;;;;;;30.33;30.33;;;;;1.02;55.45;102195.34;4825272;29;8907;-73
2021/11/24 05:34:54;;;;;;;;;28.67;26.67;;;;;1.17;54.91;102191.38;4841921;29;8889;-72
2021/11/24 05:37:50;;;;;;;;;28.67;28.67;;;;;1.21;55.37;102204.31;4839308;29;8857;-72
2021/11/24 05:40:23;;;;;;;;;20.33;20.33;;;;;1.11;55.57;102209.50;4838731;29;9001;-67
2021/11/24 05:43:21;;;;;;;;;19.33;18.00;;;;;0.94;55.51;102213.91;4841087;29;8877;-71
2021/11/24 05:47:06;;;;;;;;;20.67;19.67;;;;;1.07;55.80;102225.47;4840990;29;9005;-72
2021/11/24 05:49:37;;;;;;;;;20.33;19.00;;;;;1.27;55.64;102227.09;4840635;29;8893;-72
2021/11/24 05:52:33;;;;;;;;;16.33;16.33;;;;;1.23;56.11;102232.19;4822942;29;9006;-71
2021/11/24 05:55:00;;;;;;;;;23.33;23.33;;;;;1.19;55.69;102241.03;4823642;29;8876;-72
2021/11/24 05:57:42;;;;;;;;;38.33;32.00;;;;;1.07;55.93;102252.72;4824707;29;8983;-71
2021/11/24 06:00:11;;;;;;;;;20.67;20.00;;;;;1.18;56.19;102250.28;4827002;29;8871;-71
2021/11/24 06:03:07;;;;;;;;;20.00;19.00;;;;;1.30;55.23;102260.19;4825010;29;8907;-72
2021/11/24 06:06:02;;;;;;;;;26.00;24.33;;;;;1.49;55.30;102251.94;4813420;29;8855;-71
2021/11/24 06:08:49;;;;;;;;;27.00;27.00;;;;;1.60;55.34;102260.16;4831161;29;8897;-72
2021/11/24 06:11:17;;;;;;;;;25.33;22.33;;;;;1.72;55.08;102262.09;4843939;29;8973;-72
2021/11/24 06:14:12;;;;;;;;;31.67;31.67;;;;;1.86;54.42;102256.19;4831612;29;8892;-72
2021/11/24 06:16:42;;;;;;;;;37.67;32.00;;;;;1.84;55.16;102262.94;4844862;29;8872;-72
2021/11/24 06:19:37;;;;;;;;;42.00;35.00;;;;;1.99;54.73;102267.94;4841918;29;8908;-72
2021/11/24 06:22:33;;;;;;;;;31.67;27.00;;;;;2.07;54.27;102271.19;4843495;29;8885;-71
2021/11/24 06:25:06;;;;;;;;;30.33;29.00;;;;;1.92;54.67;102276.25;4844691;29;8878;-71
2021/11/24 06:28:03;;;;;;;;;29.00;23.00;;;;;2.04;54.87;102273.53;4825389;29;8879;-72
2021/11/24 06:30:59;;;;;;;;;35.33;31.00;;;;;2.05;55.58;102276.03;4825906;29;8887;-72
2021/11/24 06:33:55;;;;;;;;;53.00;45.33;;;;;1.83;56.53;102277.63;4825539;29;8884;-72
2021/11/24 06:36:53;;;;;;;;;65.00;52.67;;;;;2.15;56.64;102276.28;4828234;29;8997;-72
2021/11/24 06:39:23;;;;;;;;;65.00;50.67;;;;;2.14;56.56;102282.78;4827612;29;8894;-71
2021/11/24 06:42:19;;;;;;;;;64.33;56.00;;;;;2.08;57.41;102283.75;4843518;29;8984;-71
2021/11/24 06:44:55;;;;;;;;;72.33;56.33;;;;;2.23;56.85;102284.13;4844116;29;8915;-71
2021/11/24 06:47:23;;;;;;;;;80.33;61.33;;;;;2.38;57.67;102291.03;4840731;29;8899;-71
2021/11/24 06:49:50;;;;;;;;;42.00;42.00;;;;;2.13;57.13;102294.78;4835345;29;8876;-71
2021/11/24 06:52:46;;;;;;;;;61.00;50.67;;;;;2.29;56.67;102287.78;4836316;29;8900;-71
2021/11/24 06:55:42;;;;;;;;;46.67;43.33;;;;;2.34;56.73;102290.66;4829333;29;9595;-71
2021/11/24 06:58:37;;;;;;;;;49.00;46.00;;;;;2.49;56.36;102291.00;4837848;29;8921;-70
2021/11/24 07:01:35;;;;;;;;;56.33;50.33;;;;;2.42;56.49;102286.72;4829704;29;8926;-71
2021/11/24 07:04:32;;;;;;;;;52.33;45.67;;;;;2.66;56.46;102293.84;4812205;29;8899;-72
2021/11/24 07:07:09;;;;;;;;;64.67;50.00;;;;;2.56;56.18;102298.25;4834574;29;9619;-71
2021/11/24 07:09:58;;;;;;;;;62.00;52.00;;;;;2.86;55.44;102304.41;4829525;29;8904;-71
2021/11/24 07:12:46;;;;;;;;;50.33;41.33;;;;;2.83;55.36;102307.59;4841940;29;8911;-71
2021/11/24 07:15:14;;;;;;;;;60.67;49.33;;;;;2.88;55.24;102315.09;4839831;29;8910;-72
2021/11/24 07:18:10;;;;;;;;;44.67;42.67;;;;;2.98;55.11;102315.31;4825026;29;8890;-72
2021/11/24 07:20:50;;;;;;;;;42.00;42.00;;;;;2.64;56.25;102303.34;4826265;29;8860;-72
2021/11/24 07:23:17;;;;;;;;;24.67;24.67;;;;;2.65;56.65;102315.94;4831969;29;8969;-72
2021/11/24 07:25:45;;;;;;;;;27.67;26.67;;;;;2.86;56.31;102311.78;4833671;29;11789;-71
2021/11/24 07:28:14;;;;;;;;;24.67;20.00;;;;;3.10;55.97;102307.91;4816792;29;11757;-72
2021/11/24 07:30:42;;;;;;;;;21.67;21.67;;;;;3.24;55.47;102312.03;4825624;29;11732;-72
2021/11/24 07:33:14;;;;;;;;;22.00;22.00;;;;;3.23;55.67;102312.28;4839735;29;11741;-71
2021/11/24 07:36:10;;;;;;;;;14.25;14.25;;;;;3.04;55.68;102312.44;4829289;29;11738;-72
2021/11/24 07:38:46;;;;;;;;;26.50;26.25;;;;;3.27;54.98;102310.72;4841552;29;11741;-72
2021/11/24 07:41:14;;;;;;;;;28.25;27.25;;;;;3.27;55.09;102325.22;4841572;29;11761;-72
2021/11/24 07:44:10;;;;;;;;;24.25;23.50;;;;;3.53;54.54;102326.59;4830371;29;11743;-73
2021/11/24 07:46:39;;;;;;;;;18.25;17.00;;;;;3.02;54.91;102333.72;4826290;29;11738;-69
2021/11/24 07:49:35;;;;;;;;;17.00;17.00;;;;;3.06;55.50;102334.06;4841952;29;12520;-70
2021/11/24 07:52:18;;;;;;;;;20.50;20.50;;;;;3.04;55.34;102341.69;4836529;29;11752;-70
2021/11/24 07:55:14;;;;;;;;;16.25;16.25;;;;;3.23;54.31;102348.69;4840461;29;11732;-70
2021/11/24 07:58:12;;;;;;;;;13.25;13.25;;;;;3.41;54.52;102353.13;4830553;29;11764;-70
2021/11/24 08:00:40;;;;;;;;;25.00;25.00;;;;;3.83;53.59;102356.44;4826678;29;11808;-71
2021/11/24 08:03:08;;;;;;;;;33.00;32.00;;;;;4.16;52.84;102363.03;4841979;29;11756;-71
2021/11/24 08:05:36;;;;;;;;;24.50;23.25;;;;;4.50;51.65;102361.13;4838340;29;11771;-72
2021/11/24 08:08:32;;;;;;;;;23.00;22.25;;;;;4.69;50.41;102367.22;4835159;29;11744;-71
2021/11/24 08:11:28;;;;;;;;;19.50;18.25;;;;;4.08;50.89;102364.28;4839741;29;12483;-71
2021/11/24 08:14:17;;;;;;;;;19.25;19.25;;;;;3.86;50.89;102357.84;4842487;29;11760;-71
2021/11/24 08:16:47;;;;;;;;;22.50;19.75;;;;;3.95;50.11;102356.38;4841000;29;11755;-71
2021/11/24 08:19:43;;;;;;;;;13.50;13.50;;;;;4.24;50.63;102345.38;4831616;29;11763;-71
2021/11/24 08:22:10;;;;;;;;;12.50;12.25;;;;;3.93;49.68;102354.97;4825319;29;11772;-71
2021/11/24 08:24:39;;;;;;;;;20.75;20.75;;;;;4.03;50.12;102355.13;4823407;29;11742;-72
2021/11/24 08:27:36;;;;;;;;;21.50;21.50;;;;;4.30;49.82;102356.19;4825729;29;11789;-71
2021/11/24 08:30:31;;;;;;;;;23.75;21.50;;;;;4.20;49.78;102355.97;4838547;29;11729;-72
2021/11/24 08:33:27;;;;;;;;;16.00;16.00;;;;;4.44;49.27;102351.16;4838569;29;11743;-71
2021/11/24 08:35:55;;;;;;;;;21.00;21.00;;;;;4.38;48.08;102358.50;4842286;29;11810;-71
2021/11/24 08:38:24;;;;;;;;;33.50;25.75;;;;;4.42;48.27;102361.56;4825583;29;11779;-71
2021/11/24 08:41:20;;;;;;;;;13.00;13.00;;;;;4.87;47.27;102361.44;4841128;29;11751;-71
2021/11/24 08:44:15;;;;;;;;;11.25;11.25;;;;;4.83;45.17;102364.94;4840848;29;11710;-69
2021/11/24 08:46:44;;;;;;;;;18.50;18.50;;;;;5.13;45.99;102370.84;4841851;29;11696;-69
2021/11/24 08:49:21;;;;;;;;;19.50;19.25;;;;;5.33;45.13;102370.31;4832230;29;11723;-69
2021/11/24 08:52:17;;;;;;;;;16.75;16.75;;;;;5.63;44.22;102377.25;4836561;29;11756;-71
2021/11/24 08:54:45;;;;;;;;;15.25;14.50;;;;;5.87;42.26;102370.38;4841951;29;12569;-72
2021/11/24 08:57:17;;;;;;;;;22.75;22.50;;;;;6.17;42.71;102377.31;4841873;29;11724;-72
2021/11/24 08:59:47;;;;;;;;;18.25;18.25;;;;;6.23;42.22;102371.59;4841926;29;11827;-71
2021/11/24 09:02:15;;;;;;;;;21.50;20.25;;;;;6.70;42.10;102376.38;4839329;29;11743;-71
2021/11/24 09:04:43;;;;;;;;;21.00;21.00;;;;;6.85;41.92;102378.41;4841651;29;11750;-72
2021/11/24 09:07:11;;;;;;;;;17.50;17.00;;;;;6.68;41.97;102373.91;4834539;29;11764;-72
2021/11/24 09:09:42;;;;;;;;;43.00;32.75;;;;;6.78;41.74;102375.91;4831560;29;11728;-72
2021/11/24 09:12:37;;;;;;;;;19.25;17.75;;;;;6.37;42.15;102377.50;4837422;29;11896;-74
2021/11/24 09:15:05;;;;;;;;;24.75;24.00;;;;;6.33;41.94;102377.19;4831849;29;11781;-75
2021/11/24 09:17:46;;;;;;;;;21.25;21.25;;;;;6.60;42.36;102368.91;4839728;29;11737;-74
2021/11/24 09:20:15;;;;;;;;;18.25;17.75;;;;;6.71;42.02;102374.47;4841609;29;12438;-74
2021/11/24 09:23:14;;;;;;;;;19.50;18.25;;;;;6.69;42.15;102371.97;4834392;29;11825;-75
2021/11/24 09:28:42;;;;;;;;;18.75;17.75;;;;;6.66;41.36;102380.75;4806587;29;11773;-74
2021/11/24 09:31:41;;;;;;;;;20.00;20.00;;;;;6.64;40.54;102388.44;4833998;29;11754;-74
2021/11/24 09:34:12;;;;;;;;;14.50;14.50;;;;;6.67;39.94;102382.41;4832104;29;12574;-74
2021/11/24 09:36:41;;;;;;;;;26.75;26.75;;;;;6.97;38.80;102381.78;4841762;29;11763;-74
2021/11/24 09:39:14;;;;;;;;;26.00;23.75;;;;;7.15;39.09;102378.59;4839458;29;11761;-73
2021/11/24 09:42:10;;;;;;;;;26.00;23.50;;;;;6.98;38.06;102372.47;4823316;29;11794;-74
2021/11/24 09:45:07;;;;;;;;;32.50;32.00;;;;;7.15;38.77;102375.03;4814455;29;11779;-74
2021/11/24 09:47:37;;;;;;;;;29.25;27.00;;;;;7.32;38.19;102372.09;4811564;29;11762;-73
2021/11/24 09:50:08;;;;;;;;;23.75;23.75;;;;;6.86;38.39;102374.56;4827761;29;11747;-73
2021/11/24 09:52:36;;;;;;;;;19.75;19.75;;;;;6.58;38.63;102372.97;4845183;29;11746;-75
2021/11/24 09:55:37;;;;;;;;;27.75;26.75;;;;;6.77;39.09;102377.00;4844253;29;12584;-78
2021/11/24 09:58:06;;;;;;;;;36.00;35.00;;;;;7.07;39.19;102376.38;4845505;29;11766;-77
2021/11/24 10:00:36;;;;;;;;;50.25;42.00;;;;;7.09;39.00;102376.91;4845197;29;11832;-78
2021/11/24 10:03:04;;;;;;;;;48.00;41.25;;;;;7.13;37.54;102379.94;4828344;29;11848;-76
2021/11/24 10:05:33;;;;;;;;;48.25;43.25;;;;;7.09;37.24;102385.16;4845035;29;11799;-77
2021/11/24 10:08:02;;;;;;;;;49.75;44.25;;;;;7.28;37.35;102388.28;4844777;29;11822;-76
2021/11/24 10:10:47;;;;;;;;;33.75;30.25;;;;;6.89;37.35;102388.59;4828356;29;11764;-76
2021/11/24 10:13:15;;;;;;;;;42.75;36.25;;;;;7.08;37.33;102383.53;4844588;29;11883;-77
2021/11/24 10:16:25;;;;;;;;;37.75;36.50;;;;;7.12;36.98;102378.28;4819408;29;11751;-77
2021/11/24 10:19:00;;;;;;;;;27.75;27.75;;;;;7.37;36.13;102380.38;4844924;29;11784;-77
2021/11/24 10:21:28;;;;;;;;;31.00;29.00;;;;;7.71;36.26;102378.00;4827647;29;11957;-77
2021/11/24 10:24:03;;;;;;;;;37.00;31.50;;;;;7.56;35.98;102377.97;4844865;29;11765;-77
2021/11/24 10:26:35;;;;;;;;;36.00;31.25;;;;;7.67;36.05;102374.16;4844424;29;11756;-76
2021/11/24 10:29:22;;;;;;;;;37.75;28.50;;;;;7.43;35.53;102371.03;4844705;29;11876;-77
2021/11/24 10:32:03;;;;;;;;;29.75;27.75;;;;;7.24;36.08;102377.00;4844620;29;11827;-77
2021/11/24 10:34:35;;;;;;;;;45.50;38.25;;;;;7.57;36.02;102369.44;4844463;29;11811;-77
2021/11/24 10:37:11;;;;;;;;;39.00;38.00;;;;;7.35;36.43;102372.34;4844511;29;11764;-77
2021/11/24 10:39:45;;;;;;;;;43.00;40.50;;;;;7.47;36.18;102375.72;4844332;29;11764;-78
2021/11/24 10:42:17;;;;;;;;;37.50;35.50;;;;;7.83;36.62;102369.53;4844284;29;11787;-77
2021/11/24 10:44:48;;;;;;;;;44.25;41.00;;;;;7.83;36.02;102386.06;4843931;29;11840;-76
2021/11/24 10:47:18;;;;;;;;;40.50;32.25;;;;;8.01;34.62;102371.75;4844433;29;11862;-76
2021/11/24 10:49:49;;;;;;;;;36.50;36.50;;;;;7.92;36.14;102370.66;4844041;29;11744;-77
2021/11/24 10:52:31;;;;;;;;;48.25;41.50;;;;;7.84;35.79;102371.19;4844228;29;11769;-76
2021/11/24 10:55:01;;;;;;;;;33.75;33.50;;;;;7.73;36.42;102376.63;4843996;29;11786;-76
2021/11/24 10:57:34;;;;;;;;;48.25;41.50;;;;;8.09;35.32;102371.22;4842877;29;11777;-76
2021/11/24 11:00:16;;;;;;;;;51.50;41.75;;;;;8.11;34.36;102370.94;4827633;29;11856;-77
2021/11/24 11:02:46;;;;;;;;;30.50;27.50;;;;;8.70;31.12;102371.28;4843793;29;11779;-76
2021/11/24 11:05:24;;;;;;;;;34.50;34.50;;;;;8.43;30.69;102377.06;4843844;29;11756;-76
2021/11/24 11:07:52;;;;;;;;;26.25;26.25;;;;;8.13;32.08;102366.84;4827734;29;11906;-77
2021/11/24 11:10:45;;;;;;;;;56.75;45.00;;;;;8.56;33.34;102368.25;4843630;29;11769;-78
2021/11/24 11:13:16;;;;;;;;;55.50;46.50;;;;;8.19;33.35;102368.47;4843831;29;11802;-77
2021/11/24 11:15:53;;;;;;;;;66.75;53.00;;;;;8.04;32.72;102369.28;4843431;29;11773;-77
2021/11/24 11:18:32;;;;;;;;;63.00;47.75;;;;;7.76;32.69;102372.53;4843846;29;11767;-76
2021/11/24 11:21:01;;;;;;;;;70.25;53.75;;;;;7.86;33.87;102372.56;4843500;29;11795;-77
2021/11/24 11:23:43;;;;;;;;;61.75;49.50;;;;;7.87;34.47;102376.97;4843557;29;11805;-77
2021/11/24 11:26:23;;;;;;;;;57.50;45.75;;;;;7.99;33.24;102371.22;4837157;29;11801;-77
2021/11/24 11:28:59;;;;;;;;;59.25;49.75;;;;;8.01;32.50;102374.50;4843387;29;11793;-77
2021/11/24 11:31:28;;;;;;;;;54.75;44.25;;;;;8.18;32.47;102371.50;4827261;29;11934;-77
2021/11/24 11:33:59;;;;;;;;;71.50;55.50;;;;;7.96;31.82;102380.00;4842235;29;11745;-77
2021/11/24 11:36:27;;;;;;;;;64.25;53.50;;;;;7.88;31.84;102380.53;4843469;29;11766;-78
2021/11/24 11:39:04;;;;;;;;;65.50;54.25;;;;;7.84;31.68;102372.00;4825971;29;11867;-77
2021/11/24 11:42:01;;;;;;;;;105.75;67.50;;;;;7.98;32.58;102383.34;4816711;29;11770;-76
2021/11/24 11:44:52;;;;;;;;;47.50;39.50;;;;;7.77;32.97;102387.97;4839958;29;11851;-75
2021/11/24 11:47:52;;;;;;;;;66.75;51.25;;;;;7.77;33.07;102379.69;4828387;29;11782;-76
2021/11/24 11:50:48;;;;;;;;;65.00;49.25;;;;;7.97;32.58;102379.72;4841908;29;12704;-77
2021/11/24 11:53:34;;;;;;;;;49.00;41.75;;;;;7.80;31.99;102384.66;4824493;29;11814;-77
2021/11/24 11:56:11;;;;;;;;;43.50;40.00;;;;;7.81;31.29;102389.06;4816649;29;11776;-74
2021/11/24 11:58:47;;;;;;;;;37.25;35.75;;;;;7.78;33.14;102384.09;4825343;29;11843;-75
2021/11/24 12:01:16;;;;;;;;;61.50;45.75;;;;;7.64;33.26;102385.69;4822602;29;11851;-78
2021/11/24 12:03:52;;;;;;;;;26.25;25.00;;;;;7.30;33.70;102388.03;4841014;29;11758;-76
2021/11/24 12:06:23;;;;;;;;;30.50;29.50;;;;;7.68;32.98;102395.91;4841844;29;11748;-77
2021/11/24 12:09:27;;;;;;;;;32.50;31.50;;;;;7.63;32.28;102393.13;4823611;29;11826;-75
2021/11/24 12:12:07;;;;;;;;;22.00;20.00;;;;;7.58;32.49;102392.28;4839588;29;11753;-76
2021/11/24 12:15:27;;;;;;;;;24.25;23.25;;;;;7.27;33.02;102400.41;4841543;29;11768;-76
2021/11/24 12:18:11;;;;;;;;;22.25;22.25;;;;;7.63;32.32;102395.06;4842459;29;11774;-75
2021/11/24 12:21:21;;;;;;;;;20.00;18.00;;;;;7.42;33.19;102389.47;4829469;29;11734;-75
2021/11/24 12:24:05;;;;;;;;;51.50;41.25;;;;;7.36;33.37;102385.06;4842181;29;11732;-76
2021/11/24 12:26:53;;;;;;;;;18.50;14.00;;;;;7.15;33.71;102392.38;4842625;29;11863;-78
2021/11/24 12:29:48;;;;;;;;;20.75;20.75;;;;;6.85;34.40;102393.00;4842748;29;11651;-79
2021/11/24 12:32:18;;;;;;;;;14.00;14.00;;;;;7.03;34.32;102386.22;4840360;29;11767;-77
2021/11/24 12:34:51;;;;;;;;;12.25;11.00;;;;;6.99;33.70;102395.28;4836306;29;11736;-77
2021/11/24 12:37:47;;;;;;;;;9.00;9.00;;;;;6.70;33.66;102395.63;4838346;29;11756;-76
2021/11/24 12:40:47;;;;;;;;;9.25;9.25;;;;;6.93;33.36;102399.94;4838068;29;11884;-77